createdAt,value
2022-08-22T00:00:13.598Z,13.32
2022-08-22T00:02:44.407Z,13.07
2022-08-22T00:02:55.614Z,15.35
2022-08-22T00:02:57.678Z,12.60
2022-08-22T00:02:58.381Z,12.10
2022-08-22T00:03:00.668Z,11.77
2022-08-22T00:03:04.186Z,9.43
2022-08-22T00:03:10.387Z,14.88
2022-08-22T00:03:17.423Z,14.43
2022-08-22T00:05:59.931Z,14.48
2022-08-22T00:08:37.524Z,14.63
2022-08-22T00:11:14.154Z,13.73
2022-08-22T00:13:47.827Z,15.65
2022-08-22T00:16:29.202Z,14.35
2022-08-22T00:19:09.945Z,13.52
2022-08-22T00:21:48.878Z,15.10
2022-08-22T00:24:26.535Z,15.23
2022-08-22T00:27:00.613Z,15.52
2022-08-22T00:29:39.899Z,15.20
2022-08-22T00:32:17.161Z,13.55
2022-08-22T00:34:58.453Z,12.45
2022-08-22T00:37:38.223Z,13.98
2022-08-22T00:40:29.417Z,15.43
2022-08-22T00:43:32.721Z,12.75
2022-08-22T00:46:15.490Z,12.70
2022-08-22T00:49:25.427Z,13.35
2022-08-22T00:52:29.140Z,12.30
2022-08-22T00:55:33.898Z,11.32
2022-08-22T00:58:46.627Z,12.35
2022-08-22T01:01:21.098Z,12.88
2022-08-22T01:04:07.567Z,11.75
2022-08-22T01:06:46.890Z,12.85
2022-08-22T01:09:41.406Z,12.13
2022-08-22T01:12:40.197Z,10.73
2022-08-22T01:15:14.541Z,13.88
2022-08-22T01:18:08.293Z,14.45
2022-08-22T01:21:20.683Z,12.90
2022-08-22T01:25:00.239Z,12.35
2022-08-22T01:27:58.980Z,15.43
2022-08-22T01:31:00.977Z,11.27
2022-08-22T01:34:14.161Z,13.73
2022-08-22T01:37:19.043Z,15.48
2022-08-22T01:40:25.313Z,12.32
2022-08-22T01:43:07.438Z,7.25
2022-08-22T01:46:11.041Z,11.20
2022-08-22T01:48:47.750Z,12.38
2022-08-22T01:51:24.762Z,13.05
2022-08-22T01:54:02.406Z,12.68
2022-08-22T01:56:37.313Z,12.88
2022-08-22T01:59:10.905Z,12.00
2022-08-22T02:01:59.450Z,12.93
2022-08-22T02:04:43.711Z,13.57
2022-08-22T02:07:31.660Z,15.97
2022-08-22T02:10:09.285Z,16.02
2022-08-22T02:12:47.417Z,15.30
2022-08-22T02:15:24.185Z,17.00
2022-08-22T02:18:03.755Z,19.90
2022-08-22T02:20:40.717Z,19.00
2022-08-22T02:23:20.932Z,14.00
2022-08-22T02:25:56.251Z,15.82
2022-08-22T02:28:38.485Z,13.50
2022-08-22T02:31:19.891Z,15.70
2022-08-22T02:33:54.961Z,14.25
2022-08-22T02:36:30.006Z,14.85
2022-08-22T02:39:09.747Z,13.32
2022-08-22T02:41:49.486Z,15.95
2022-08-22T02:44:28.291Z,14.18
2022-08-22T02:47:08.403Z,11.77
2022-08-22T02:49:48.546Z,14.50
2022-08-22T02:52:26.668Z,15.32
2022-08-22T02:55:03.823Z,12.07
2022-08-22T02:57:39.339Z,11.05
2022-08-22T03:00:32.025Z,12.52
2022-08-22T03:03:05.940Z,13.05
2022-08-22T03:05:48.369Z,12.95
2022-08-22T03:08:23.923Z,13.63
2022-08-22T03:11:07.895Z,12.90
2022-08-22T03:13:48.275Z,15.75
2022-08-22T03:16:27.227Z,13.23
2022-08-22T03:19:03.101Z,12.75
2022-08-22T03:21:36.576Z,13.52
2022-08-22T03:24:12.422Z,14.10
2022-08-22T03:26:47.626Z,14.20
2022-08-22T03:29:21.794Z,14.30
2022-08-22T03:32:12.801Z,13.52
2022-08-22T03:34:57.109Z,14.95
2022-08-22T03:37:34.893Z,15.67
2022-08-22T03:40:07.839Z,14.00
2022-08-22T03:43:09.081Z,14.50
2022-08-22T03:46:04.476Z,14.70
2022-08-22T03:49:17.773Z,15.35
2022-08-22T03:52:02.709Z,14.95
2022-08-22T03:55:00.965Z,15.85
2022-08-22T03:58:13.633Z,16.23
2022-08-22T04:01:22.045Z,14.48
2022-08-22T04:04:28.754Z,16.95
2022-08-22T04:07:31.746Z,16.08
2022-08-22T04:10:32.584Z,15.75
2022-08-22T04:13:33.237Z,15.40
2022-08-22T04:16:31.096Z,17.02
2022-08-22T04:19:33.718Z,15.02
2022-08-22T04:22:38.417Z,14.77
2022-08-22T04:25:11.336Z,15.43
2022-08-22T04:27:45.353Z,14.23
2022-08-22T04:30:26.121Z,14.90
2022-08-22T04:33:03.163Z,13.32
2022-08-22T04:35:35.488Z,12.80
2022-08-22T04:38:14.653Z,15.35
2022-08-22T04:41:04.544Z,14.52
2022-08-22T04:43:39.070Z,14.73
2022-08-22T04:46:16.974Z,14.40
2022-08-22T04:48:52.778Z,16.17
2022-08-22T04:51:32.338Z,15.93
2022-08-22T04:54:43.606Z,18.92
2022-08-22T04:57:35.423Z,16.50
2022-08-22T05:00:06.982Z,16.88
2022-08-22T05:02:39.733Z,19.35
2022-08-22T05:05:14.734Z,18.23
2022-08-22T05:07:48.405Z,17.10
2022-08-22T05:10:20.849Z,18.05
2022-08-22T05:12:55.435Z,16.20
2022-08-22T05:15:31.865Z,16.58
2022-08-22T05:18:07.499Z,16.90
2022-08-22T05:20:37.952Z,13.05
2022-08-22T05:23:17.570Z,9.93
2022-08-22T05:25:50.114Z,13.02
2022-08-22T05:28:24.117Z,13.63
2022-08-22T05:31:00.096Z,14.60
2022-08-22T05:33:40.859Z,8.02
2022-08-22T05:36:11.824Z,10.82
2022-08-22T05:38:49.135Z,15.20
2022-08-22T05:41:26.627Z,14.82
2022-08-22T05:43:56.243Z,10.68
2022-08-22T05:46:26.993Z,8.23
2022-08-22T05:49:00.312Z,10.15
2022-08-22T05:51:33.195Z,6.70
2022-08-22T05:54:15.315Z,7.72
2022-08-22T05:56:48.445Z,8.05
2022-08-22T05:59:25.738Z,7.00
2022-08-22T06:02:03.494Z,7.38
2022-08-22T06:04:38.840Z,7.15
2022-08-22T06:07:13.178Z,9.45
2022-08-22T06:10:06.971Z,9.48
2022-08-22T06:12:43.434Z,9.15
2022-08-22T06:15:20.928Z,9.38
2022-08-22T06:17:52.344Z,10.57
2022-08-22T06:20:28.679Z,11.68
2022-08-22T06:23:00.835Z,13.05
2022-08-22T06:25:34.287Z,7.22
2022-08-22T06:28:07.290Z,8.18
2022-08-22T06:30:38.124Z,10.90
2022-08-22T06:33:12.584Z,14.35
2022-08-22T06:36:03.051Z,13.32
2022-08-22T06:38:34.033Z,13.95
2022-08-22T06:41:07.283Z,13.15
2022-08-22T06:43:41.278Z,12.32
2022-08-22T06:46:11.448Z,10.82
2022-08-22T06:48:42.614Z,11.77
2022-08-22T06:51:14.246Z,13.50
2022-08-22T06:53:48.473Z,7.45
2022-08-22T06:56:23.077Z,9.73
2022-08-22T07:01:25.065Z,12.07
2022-08-22T07:04:00.441Z,10.82
2022-08-22T07:06:35.466Z,10.57
2022-08-22T07:09:06.188Z,6.55
2022-08-22T07:11:40.763Z,11.15
2022-08-22T07:14:12.451Z,11.10
2022-08-22T07:16:44.744Z,10.45
2022-08-22T07:19:28.881Z,11.32
2022-08-22T07:21:59.939Z,11.77
2022-08-22T07:24:33.023Z,9.00
2022-08-22T07:27:20.954Z,10.50
2022-08-22T07:29:58.069Z,9.63
2022-08-22T07:32:33.337Z,8.13
2022-08-22T07:35:11.181Z,10.82
2022-08-22T07:37:55.148Z,10.30
2022-08-22T07:40:33.972Z,10.02
2022-08-22T07:43:09.536Z,8.88
2022-08-22T07:45:41.978Z,7.53
2022-08-22T07:48:25.570Z,5.88
2022-08-22T07:51:05.861Z,7.35
2022-08-22T07:53:43.484Z,10.00
2022-08-22T07:56:17.127Z,11.07
2022-08-22T07:58:49.102Z,10.60
2022-08-22T08:01:21.276Z,9.85
2022-08-22T08:03:55.799Z,6.53
2022-08-22T08:06:26.493Z,7.90
2022-08-22T08:08:58.352Z,6.43
2022-08-22T08:11:31.832Z,8.35
2022-08-22T08:14:04.389Z,9.02
2022-08-22T08:16:43.076Z,6.68
2022-08-22T08:19:13.936Z,8.05
2022-08-22T08:21:49.575Z,6.90
2022-08-22T08:24:26.195Z,8.57
2022-08-22T08:27:17.208Z,8.85
2022-08-22T08:29:55.599Z,9.80
2022-08-22T08:32:29.030Z,8.25
2022-08-22T08:35:09.262Z,7.35
2022-08-22T08:37:50.003Z,8.40
2022-08-22T08:40:37.326Z,7.53
2022-08-22T08:43:30.068Z,8.90
2022-08-22T08:46:55.290Z,7.93
2022-08-22T08:50:01.189Z,7.03
2022-08-22T08:55:30.639Z,5.53
2022-08-22T08:58:13.486Z,7.05
2022-08-22T09:01:07.295Z,8.15
2022-08-22T09:04:15.151Z,7.57
2022-08-22T09:07:15.879Z,7.43
2022-08-22T09:10:04.662Z,7.50
2022-08-22T09:13:00.633Z,6.90
2022-08-22T09:16:02.253Z,8.30
2022-08-22T09:18:49.882Z,8.20
2022-08-22T09:21:43.215Z,6.55
2022-08-22T09:24:54.416Z,5.38
2022-08-22T09:27:33.903Z,6.32
2022-08-22T09:30:11.921Z,8.60
2022-08-22T09:32:48.850Z,6.05
2022-08-22T09:35:27.189Z,7.53
2022-08-22T09:38:29.430Z,7.90
2022-08-22T09:41:11.677Z,9.90
2022-08-22T09:43:50.162Z,6.80
2022-08-22T09:46:32.067Z,9.35
2022-08-22T09:49:10.882Z,9.68
2022-08-22T09:51:52.789Z,9.70
2022-08-22T09:54:31.154Z,10.73
2022-08-22T09:57:09.246Z,6.97
2022-08-22T09:59:57.977Z,8.90
2022-08-22T10:02:43.279Z,9.73
2022-08-22T10:05:40.658Z,8.85
2022-08-22T10:08:20.121Z,9.00
2022-08-22T10:11:12.939Z,8.90
2022-08-22T10:13:52.890Z,8.43
2022-08-22T10:16:49.588Z,8.10
2022-08-22T10:19:29.921Z,7.53
2022-08-22T10:22:30.359Z,9.52
2022-08-22T10:25:19.041Z,9.95
2022-08-22T10:28:02.172Z,8.15
2022-08-22T10:30:36.061Z,10.40
2022-08-22T10:33:12.339Z,11.77
2022-08-22T10:36:05.085Z,11.30
2022-08-22T10:38:46.132Z,9.55
2022-08-22T10:41:28.355Z,9.70
2022-08-22T10:44:11.688Z,8.05
2022-08-22T10:46:47.372Z,9.93
2022-08-22T10:49:28.265Z,8.02
2022-08-22T10:52:13.665Z,6.20
2022-08-22T10:54:48.884Z,9.13
2022-08-22T10:57:50.722Z,9.20
2022-08-22T11:00:38.606Z,9.55
2022-08-22T11:03:24.853Z,6.87
2022-08-22T11:06:01.546Z,6.55
2022-08-22T11:08:59.805Z,11.65
2022-08-22T11:11:49.650Z,10.88
2022-08-22T11:14:58.361Z,6.13
2022-08-22T11:18:06.306Z,11.80
2022-08-22T11:20:53.782Z,9.10
2022-08-22T11:23:35.103Z,8.73
2022-08-22T11:26:15.007Z,9.20
2022-08-22T11:29:13.747Z,10.40
2022-08-22T11:31:51.458Z,9.82
2022-08-22T11:34:33.373Z,9.98
2022-08-22T11:37:12.210Z,12.18
2022-08-22T11:39:48.086Z,24.38
2022-08-22T11:42:29.540Z,26.45
2022-08-22T11:45:02.443Z,14.50
2022-08-22T11:47:41.577Z,12.30
2022-08-22T11:50:19.238Z,10.48
2022-08-22T11:53:12.230Z,11.65
2022-08-22T11:55:51.871Z,8.52
2022-08-22T11:58:31.802Z,9.63
2022-08-22T12:01:04.622Z,8.70
2022-08-22T12:03:55.747Z,9.50
2022-08-22T12:07:02.227Z,10.95
2022-08-22T12:09:42.871Z,13.07
2022-08-22T12:12:27.163Z,14.27
2022-08-22T12:15:05.478Z,13.07
2022-08-22T12:18:01.456Z,16.25
2022-08-22T12:21:32.776Z,14.77
2022-08-22T12:24:33.226Z,20.17
2022-08-22T12:27:30.956Z,12.63
2022-08-22T12:30:14.230Z,19.00
2022-08-22T12:33:13.105Z,12.32
2022-08-22T12:36:04.909Z,12.63
2022-08-22T12:39:02.343Z,11.05
2022-08-22T12:42:04.239Z,11.48
2022-08-22T12:44:50.649Z,12.57
2022-08-22T12:47:34.444Z,18.77
2022-08-22T12:50:17.160Z,13.45
2022-08-22T12:53:07.138Z,15.50
2022-08-22T12:55:51.898Z,12.95
2022-08-22T12:58:33.875Z,15.00
2022-08-22T13:01:07.126Z,16.20
2022-08-22T13:03:45.247Z,13.82
2022-08-22T13:06:48.787Z,15.05
2022-08-22T13:09:28.783Z,11.15
2022-08-22T13:12:02.583Z,11.80
2022-08-22T13:14:34.225Z,12.15
2022-08-22T13:17:24.486Z,12.13
2022-08-22T13:20:06.816Z,12.20
2022-08-22T13:22:45.674Z,12.63
2022-08-22T13:25:25.853Z,12.43
2022-08-22T13:27:59.105Z,19.85
2022-08-22T13:30:32.200Z,30.33
2022-08-22T13:33:11.042Z,23.77
2022-08-22T13:35:51.923Z,33.50
2022-08-22T13:38:27.260Z,24.95
2022-08-22T13:41:01.210Z,26.02
2022-08-22T13:43:35.840Z,22.13
2022-08-22T13:46:10.825Z,23.88
2022-08-22T13:49:01.007Z,22.23
2022-08-22T13:51:40.379Z,25.63
2022-08-22T13:54:38.937Z,40.25
2022-08-22T13:57:20.178Z,75.57
2022-08-22T14:00:05.745Z,54.22
2022-08-22T14:02:58.326Z,73.05
2022-08-22T14:05:36.352Z,45.92
2022-08-22T14:08:18.839Z,58.05
2022-08-22T14:10:55.056Z,34.55
2022-08-22T14:13:41.120Z,26.33
2022-08-22T14:16:15.016Z,40.80
2022-08-22T14:18:49.380Z,28.33
2022-08-22T14:21:26.493Z,115.47
2022-08-22T14:23:59.908Z,69.10
2022-08-22T14:26:32.854Z,46.30
2022-08-22T14:29:14.551Z,90.80
2022-08-22T14:31:57.272Z,83.13
2022-08-22T14:34:27.500Z,21.35
2022-08-22T14:36:58.887Z,60.95
2022-08-22T14:39:38.030Z,31.08
2022-08-22T14:42:18.801Z,27.80
2022-08-22T14:45:00.199Z,38.50
2022-08-22T14:47:55.373Z,42.60
2022-08-22T14:50:44.347Z,14.93
2022-08-22T14:53:25.429Z,16.77
2022-08-22T14:56:03.880Z,32.55
2022-08-22T14:58:36.578Z,56.67
2022-08-22T15:01:12.755Z,58.67
2022-08-22T15:03:54.108Z,64.07
2022-08-22T15:06:37.129Z,30.52
2022-08-22T15:09:08.481Z,94.97
2022-08-22T15:11:42.161Z,202.50
2022-08-22T15:14:24.350Z,156.73
2022-08-22T15:16:56.245Z,142.98
2022-08-22T15:19:36.832Z,111.15
2022-08-22T15:22:15.075Z,185.48
2022-08-22T15:25:00.482Z,204.93
2022-08-22T15:27:33.821Z,84.60
2022-08-22T15:30:07.042Z,87.38
2022-08-22T15:32:49.229Z,122.78
2022-08-22T15:35:30.122Z,166.50
2022-08-22T15:38:04.444Z,130.43
2022-08-22T15:43:21.675Z,54.67
2022-08-22T15:45:53.468Z,87.40
2022-08-22T15:48:32.543Z,40.60
2022-08-22T15:51:09.435Z,16.02
2022-08-22T15:54:02.096Z,47.33
2022-08-22T15:56:34.220Z,16.95
2022-08-22T15:59:48.241Z,159.13
2022-08-22T16:02:34.887Z,22.17
2022-08-22T16:05:23.273Z,11.55
2022-08-22T16:08:02.924Z,34.53
2022-08-22T16:10:34.710Z,54.67
2022-08-22T16:13:37.946Z,30.67
2022-08-22T16:16:14.875Z,40.17
2022-08-22T16:19:20.359Z,16.85
2022-08-22T16:22:15.252Z,17.48
2022-08-22T16:25:08.041Z,6.53
2022-08-22T16:27:54.075Z,8.25
2022-08-22T16:30:35.186Z,45.50
2022-08-22T16:33:07.146Z,6.97
2022-08-22T16:36:22.443Z,67.18
2022-08-22T16:38:53.748Z,22.93
2022-08-22T16:41:35.873Z,37.33
2022-08-22T16:44:38.864Z,11.02
2022-08-22T16:47:15.917Z,15.82
2022-08-22T16:50:09.287Z,7.32
2022-08-22T16:52:57.048Z,8.63
2022-08-22T16:55:50.197Z,7.90
2022-08-22T16:58:57.736Z,16.00
2022-08-22T17:01:54.328Z,15.90
2022-08-22T17:04:32.911Z,20.73
2022-08-22T17:07:16.738Z,26.77
2022-08-22T17:10:00.520Z,10.88
2022-08-22T17:12:46.131Z,25.40
2022-08-22T17:15:28.392Z,11.45
2022-08-22T17:18:12.721Z,5.90
2022-08-22T17:20:48.047Z,15.20
2022-08-22T17:23:28.809Z,37.72
2022-08-22T17:26:08.990Z,3.38
2022-08-22T17:28:42.862Z,25.20
2022-08-22T17:31:18.477Z,14.60
2022-08-22T17:34:23.226Z,19.35
2022-08-22T17:37:04.851Z,11.57
2022-08-22T17:40:07.325Z,28.40
2022-08-22T17:43:08.913Z,19.55
2022-08-22T17:45:51.246Z,8.82
2022-08-22T17:48:25.972Z,9.85
2022-08-22T17:50:59.645Z,8.20
2022-08-22T17:53:37.222Z,3.28
2022-08-22T17:56:21.031Z,2.63
2022-08-22T17:59:07.063Z,3.20
2022-08-22T18:01:50.689Z,7.93
2022-08-22T18:04:44.404Z,3.50
2022-08-22T18:07:31.614Z,14.32
2022-08-22T18:10:07.793Z,3.75
2022-08-22T18:12:46.024Z,5.00
2022-08-22T18:15:25.797Z,2.60
2022-08-22T18:17:58.818Z,2.50
2022-08-22T18:20:31.418Z,9.65
2022-08-22T18:23:05.087Z,2.90
2022-08-22T18:26:05.431Z,6.20
2022-08-22T18:28:43.279Z,10.02
2022-08-22T18:31:28.445Z,7.45
2022-08-22T18:34:02.252Z,8.02
2022-08-22T18:36:35.248Z,7.05
2022-08-22T18:39:15.202Z,12.25
2022-08-22T18:41:50.440Z,7.57
2022-08-22T18:44:25.268Z,6.70
2022-08-22T18:46:56.038Z,7.03
2022-08-22T18:49:48.462Z,5.70
2022-08-22T18:52:34.168Z,5.43
2022-08-22T18:55:45.847Z,8.55
2022-08-22T18:58:40.478Z,7.13
2022-08-22T19:01:44.196Z,5.83
2022-08-22T19:04:36.202Z,5.75
2022-08-22T19:07:32.215Z,5.53
2022-08-22T19:10:28.014Z,7.10
2022-08-22T19:15:49.249Z,5.55
2022-08-22T19:18:34.680Z,6.30
2022-08-22T19:21:34.558Z,5.47
2022-08-22T19:24:08.035Z,9.05
2022-08-22T19:26:40.714Z,6.15
2022-08-22T19:29:52.777Z,6.03
2022-08-22T19:33:06.417Z,5.22
2022-08-22T19:35:46.631Z,5.95
2022-08-22T19:38:54.823Z,9.63
2022-08-22T19:41:39.583Z,6.25
2022-08-22T19:44:11.442Z,6.40
2022-08-22T19:46:42.967Z,5.30
2022-08-22T19:49:30.448Z,6.13
2022-08-22T19:52:14.371Z,5.43
2022-08-22T19:54:53.582Z,7.05
2022-08-22T19:57:35.487Z,7.45
2022-08-22T20:00:13.669Z,6.10
2022-08-22T20:02:59.874Z,5.53
2022-08-22T20:05:38.764Z,6.22
2022-08-22T20:08:25.651Z,6.47
2022-08-22T20:11:05.613Z,8.35
2022-08-22T20:13:37.556Z,5.88
2022-08-22T20:16:16.349Z,5.10
2022-08-22T20:19:16.656Z,6.07
2022-08-22T20:22:00.430Z,5.43
2022-08-22T20:24:42.575Z,5.38
2022-08-22T20:27:17.509Z,7.00
2022-08-22T20:29:52.508Z,5.80
2022-08-22T20:32:26.137Z,5.25
2022-08-22T20:35:00.096Z,8.88
2022-08-22T20:37:56.235Z,6.00
2022-08-22T20:40:54.517Z,7.97
2022-08-22T20:43:35.678Z,8.85
2022-08-22T20:46:19.160Z,9.65
2022-08-22T20:48:51.695Z,5.90
2022-08-22T20:51:25.225Z,6.63
2022-08-22T20:53:55.745Z,4.72
2022-08-22T20:56:37.015Z,7.40
2022-08-22T20:59:18.557Z,5.90
2022-08-22T21:01:47.692Z,6.90
2022-08-22T21:04:20.998Z,8.20
2022-08-22T21:06:59.368Z,8.30
2022-08-22T21:09:45.338Z,4.85
2022-08-22T21:12:15.300Z,6.05
2022-08-22T21:14:47.336Z,6.78
2022-08-22T21:17:25.091Z,6.15
2022-08-22T21:19:53.657Z,6.20
2022-08-22T21:22:32.066Z,6.28
2022-08-22T21:25:01.992Z,4.97
2022-08-22T21:27:34.229Z,5.80
2022-08-22T21:30:08.527Z,6.32
2022-08-22T21:32:43.181Z,6.47
2022-08-22T21:37:53.427Z,7.32
2022-08-22T21:40:28.393Z,7.47
2022-08-22T21:45:34.480Z,8.07
2022-08-22T21:48:26.062Z,8.93
2022-08-22T21:50:57.535Z,8.55
2022-08-22T21:53:29.296Z,8.77
2022-08-22T21:56:12.713Z,9.25
2022-08-22T21:58:43.457Z,8.57
2022-08-22T22:01:33.181Z,4.25
2022-08-22T22:04:01.659Z,6.60
2022-08-22T22:06:29.972Z,7.43
2022-08-22T22:09:08.475Z,6.78
2022-08-22T22:11:39.398Z,7.30
2022-08-22T22:14:09.816Z,6.88
2022-08-22T22:16:38.643Z,7.20
2022-08-22T22:19:10.060Z,8.30
2022-08-22T22:21:38.952Z,9.88
2022-08-22T22:24:07.620Z,9.70
2022-08-22T22:26:36.146Z,10.15
2022-08-22T22:29:10.846Z,12.27
2022-08-22T22:34:07.105Z,10.48
2022-08-22T22:36:38.334Z,11.07
2022-08-22T22:39:07.298Z,11.73
2022-08-22T22:41:36.697Z,11.85
2022-08-22T22:44:05.759Z,10.80
2022-08-22T22:46:38.335Z,9.77
2022-08-22T22:49:07.316Z,13.30
2022-08-22T22:51:35.633Z,14.38
2022-08-22T22:54:04.020Z,12.25
2022-08-22T22:56:32.852Z,12.65
2022-08-22T22:59:13.066Z,12.85
2022-08-22T23:04:45.435Z,11.27
2022-08-22T23:07:20.207Z,10.63
2022-08-22T23:12:27.559Z,11.93
2022-08-22T23:15:02.174Z,12.93
2022-08-22T23:17:38.355Z,14.73
2022-08-22T23:20:16.606Z,14.57
2022-08-22T23:22:46.083Z,14.90
2022-08-22T23:25:19.961Z,14.80
2022-08-22T23:27:58.569Z,14.57
2022-08-22T23:30:26.959Z,15.45
2022-08-22T23:32:55.880Z,12.55
2022-08-22T23:35:25.613Z,13.80
2022-08-22T23:37:54.002Z,7.57
2022-08-22T23:40:22.376Z,5.18
2022-08-22T23:42:50.657Z,4.78
2022-08-22T23:45:19.152Z,6.10
2022-08-22T23:47:50.432Z,10.13
2022-08-22T23:50:18.789Z,9.50
2022-08-22T23:52:48.682Z,9.93
2022-08-22T23:55:17.159Z,9.82
2022-08-22T23:57:48.028Z,12.10
